createdAt,value
2018-08-24T00:00:35.775Z,20.80
2018-08-24T00:03:04.274Z,20.63
2018-08-24T00:05:32.831Z,21.93
2018-08-24T00:08:01.334Z,22.23
2018-08-24T00:10:29.908Z,20.70
2018-08-24T00:12:58.712Z,21.70
2018-08-24T00:15:27.223Z,20.87
2018-08-24T00:17:55.823Z,21.10
2018-08-24T00:20:24.422Z,22.50
2018-08-24T00:22:52.954Z,21.20
2018-08-24T00:25:21.856Z,21.17
2018-08-24T00:27:50.743Z,20.80
2018-08-24T00:30:19.471Z,19.67
2018-08-24T00:32:48.042Z,21.03
2018-08-24T00:35:16.554Z,20.43
2018-08-24T00:37:45.170Z,20.53
2018-08-24T00:40:13.618Z,19.50
2018-08-24T00:42:42.206Z,20.10
2018-08-24T00:45:10.783Z,19.17
2018-08-24T00:47:39.227Z,19.87
2018-08-24T00:50:08.039Z,19.80
2018-08-24T00:52:36.631Z,19.17
2018-08-24T00:55:05.318Z,19.43
2018-08-24T00:57:33.927Z,20.57
2018-08-24T01:00:02.615Z,20.03
2018-08-24T01:02:31.100Z,21.23
2018-08-24T01:04:59.493Z,20.60
2018-08-24T01:07:27.948Z,19.67
2018-08-24T01:09:58.799Z,19.97
2018-08-24T01:12:27.394Z,18.37
2018-08-24T01:14:55.978Z,18.67
2018-08-24T01:17:29.606Z,19.90
2018-08-24T01:19:58.214Z,20.70
2018-08-24T01:22:26.713Z,20.37
2018-08-24T01:24:54.989Z,19.57
2018-08-24T01:27:23.551Z,19.77
2018-08-24T01:29:52.237Z,19.60
2018-08-24T01:32:20.859Z,20.50
2018-08-24T01:34:49.395Z,20.23
2018-08-24T01:37:17.779Z,20.03
2018-08-24T01:39:46.361Z,20.83
2018-08-24T01:42:15.047Z,20.43
2018-08-24T01:44:43.482Z,21.33
2018-08-24T01:47:12.014Z,19.70
2018-08-24T01:49:40.388Z,19.73
2018-08-24T01:52:39.354Z,20.23
2018-08-24T01:55:07.872Z,21.60
2018-08-24T01:57:36.095Z,21.27
2018-08-24T02:00:05.129Z,20.73
2018-08-24T02:02:33.758Z,21.63
2018-08-24T02:05:02.506Z,22.00
2018-08-24T02:07:31.089Z,22.43
2018-08-24T02:09:59.813Z,22.43
2018-08-24T02:12:33.331Z,21.30
2018-08-24T02:15:01.956Z,21.83
2018-08-24T02:17:36.171Z,22.60
2018-08-24T02:20:10.084Z,22.53
2018-08-24T02:22:38.770Z,22.00
2018-08-24T02:25:07.514Z,20.50
2018-08-24T02:27:35.880Z,21.57
2018-08-24T02:30:04.518Z,21.50
2018-08-24T02:32:33.096Z,22.03
2018-08-24T02:35:01.577Z,22.60
2018-08-24T02:37:30.524Z,22.73
2018-08-24T02:39:58.998Z,23.03
2018-08-24T02:42:27.698Z,21.93
2018-08-24T02:44:56.333Z,21.60
2018-08-24T02:47:24.809Z,22.67
2018-08-24T02:49:53.588Z,23.83
2018-08-24T02:52:22.479Z,24.10
2018-08-24T02:54:50.920Z,21.67
2018-08-24T02:57:19.339Z,22.53
2018-08-24T02:59:47.715Z,21.10
2018-08-24T03:02:16.295Z,22.87
2018-08-24T03:04:44.896Z,21.23
2018-08-24T03:07:13.478Z,22.83
2018-08-24T03:09:42.044Z,20.77
2018-08-24T03:12:10.513Z,22.53
2018-08-24T03:14:39.025Z,22.70
2018-08-24T03:17:13.033Z,22.27
2018-08-24T03:19:41.701Z,23.60
2018-08-24T03:22:10.199Z,22.73
2018-08-24T03:24:38.976Z,23.10
2018-08-24T03:27:07.339Z,23.57
2018-08-24T03:29:35.750Z,24.47
2018-08-24T03:32:04.145Z,24.10
2018-08-24T03:34:32.687Z,25.70
2018-08-24T03:37:01.168Z,24.10
2018-08-24T03:39:29.853Z,24.03
2018-08-24T03:41:58.486Z,25.87
2018-08-24T03:44:27.248Z,24.73
2018-08-24T03:46:55.815Z,24.07
2018-08-24T03:49:24.316Z,25.53
2018-08-24T03:51:52.680Z,25.20
2018-08-24T03:54:22.063Z,25.83
2018-08-24T03:56:55.267Z,25.53
2018-08-24T03:59:24.275Z,24.40
2018-08-24T04:01:53.779Z,23.60
2018-08-24T04:04:22.444Z,24.87
2018-08-24T04:06:50.931Z,25.20
2018-08-24T04:09:19.439Z,27.23
2018-08-24T04:11:47.801Z,26.37
2018-08-24T04:14:16.266Z,27.57
2018-08-24T04:16:50.039Z,29.00
2018-08-24T04:19:24.050Z,27.07
2018-08-24T04:21:53.016Z,29.43
2018-08-24T04:24:22.174Z,26.17
2018-08-24T04:26:50.675Z,28.73
2018-08-24T04:29:19.330Z,27.07
2018-08-24T04:31:47.915Z,27.77
2018-08-24T04:34:16.399Z,27.87
2018-08-24T04:36:44.914Z,27.43
2018-08-24T04:39:13.968Z,27.23
2018-08-24T04:41:43.012Z,28.70
2018-08-24T04:44:11.865Z,29.63
2018-08-24T04:46:40.645Z,28.80
2018-08-24T04:49:09.389Z,28.67
2018-08-24T04:51:37.821Z,28.83
2018-08-24T04:54:06.385Z,30.20
2018-08-24T04:56:35.195Z,29.00
2018-08-24T04:59:03.762Z,28.30
2018-08-24T05:01:32.247Z,27.73
2018-08-24T05:04:00.829Z,27.27
2018-08-24T05:06:29.411Z,25.03
2018-08-24T05:08:57.993Z,25.47
2018-08-24T05:11:26.582Z,26.40
2018-08-24T05:13:55.036Z,39.27
2018-08-24T05:16:23.380Z,69.07
2018-08-24T05:18:52.141Z,50.67
2018-08-24T05:21:20.848Z,37.37
2018-08-24T05:23:49.911Z,32.20
2018-08-24T05:26:18.483Z,28.10
2018-08-24T05:28:47.094Z,25.57
2018-08-24T05:31:15.419Z,25.77
2018-08-24T05:33:43.767Z,22.87
2018-08-24T05:36:12.195Z,24.37
2018-08-24T05:38:40.781Z,23.77
2018-08-24T05:41:09.287Z,24.77
2018-08-24T05:43:37.748Z,24.43
2018-08-24T05:46:06.387Z,23.07
2018-08-24T05:48:34.908Z,25.33
2018-08-24T05:51:03.391Z,23.63
2018-08-24T05:53:31.996Z,24.97
2018-08-24T05:56:00.555Z,24.10
2018-08-24T05:58:28.929Z,25.07
2018-08-24T06:00:57.365Z,23.37
2018-08-24T06:03:26.028Z,24.10
2018-08-24T06:06:00.006Z,22.67
2018-08-24T06:08:28.777Z,22.73
2018-08-24T06:10:57.493Z,22.37
2018-08-24T06:13:26.142Z,19.93
2018-08-24T06:15:54.639Z,19.77
2018-08-24T06:18:23.388Z,20.20
2018-08-24T06:20:58.674Z,19.90
2018-08-24T06:23:27.175Z,16.90
2018-08-24T06:25:55.593Z,16.63
2018-08-24T06:28:24.203Z,14.57
2018-08-24T06:30:52.802Z,14.77
2018-08-24T06:33:23.431Z,14.37
2018-08-24T06:35:52.421Z,13.70
2018-08-24T06:38:21.012Z,14.30
2018-08-24T06:40:49.616Z,14.83
2018-08-24T06:43:18.072Z,14.40
2018-08-24T06:45:46.444Z,14.30
2018-08-24T06:48:15.033Z,14.10
2018-08-24T06:50:43.126Z,14.53
2018-08-24T06:53:11.886Z,14.87
2018-08-24T06:55:40.271Z,14.27
2018-08-24T06:58:08.379Z,15.37
2018-08-24T07:00:36.850Z,15.73
2018-08-24T07:03:05.401Z,16.57
2018-08-24T07:05:33.547Z,18.30
2018-08-24T07:08:02.060Z,24.40
2018-08-24T07:10:30.546Z,16.17
2018-08-24T07:12:58.843Z,15.10
2018-08-24T07:15:27.502Z,15.67
2018-08-24T07:18:03.249Z,14.53
2018-08-24T07:20:32.335Z,13.13
2018-08-24T07:23:01.027Z,11.57
2018-08-24T07:25:29.513Z,12.17
2018-08-24T07:27:57.723Z,13.87
2018-08-24T07:30:25.860Z,15.03
2018-08-24T07:32:53.949Z,11.83
2018-08-24T07:35:22.510Z,12.03
2018-08-24T07:37:50.643Z,13.30
2018-08-24T07:40:19.372Z,13.27
2018-08-24T07:42:47.748Z,11.47
2018-08-24T07:45:16.333Z,11.17
2018-08-24T07:47:44.915Z,11.67
2018-08-24T07:50:12.991Z,10.83
2018-08-24T07:52:41.568Z,11.70
2018-08-24T07:55:10.141Z,10.97
2018-08-24T07:57:38.635Z,11.33
2018-08-24T08:00:07.214Z,11.60
2018-08-24T08:02:46.554Z,10.53
2018-08-24T08:05:15.448Z,11.83
2018-08-24T08:07:44.123Z,11.13
2018-08-24T08:10:12.606Z,20.57
2018-08-24T08:12:41.235Z,11.07
2018-08-24T08:15:10.401Z,11.13
2018-08-24T08:17:39.830Z,11.50
2018-08-24T08:20:08.891Z,11.50
2018-08-24T08:22:37.366Z,13.67
2018-08-24T08:25:05.846Z,11.20
2018-08-24T08:27:34.323Z,11.10
2018-08-24T08:30:03.974Z,12.17
2018-08-24T08:32:32.950Z,12.63
2018-08-24T08:35:01.494Z,13.53
2018-08-24T08:37:29.989Z,10.87
2018-08-24T08:39:58.879Z,10.50
2018-08-24T08:42:27.345Z,10.17
2018-08-24T08:44:55.976Z,10.87
2018-08-24T08:47:24.524Z,11.97
2018-08-24T08:49:53.210Z,14.13
2018-08-24T08:52:21.893Z,10.00
2018-08-24T08:54:50.479Z,12.33
2018-08-24T08:57:19.060Z,10.60
2018-08-24T08:59:47.535Z,10.67
2018-08-24T09:02:16.129Z,12.27
2018-08-24T09:04:44.711Z,10.83
2018-08-24T09:07:13.189Z,11.40
2018-08-24T09:09:41.672Z,11.67
2018-08-24T09:12:10.460Z,11.20
2018-08-24T09:14:39.451Z,10.97
2018-08-24T09:18:14.489Z,11.63
2018-08-24T09:20:48.502Z,11.17
2018-08-24T09:23:22.308Z,11.60
2018-08-24T09:25:56.078Z,11.17
2018-08-24T09:28:35.653Z,11.27
2018-08-24T09:31:08.038Z,10.80
2018-08-24T09:33:36.415Z,11.83
2018-08-24T09:36:10.208Z,11.27
2018-08-24T09:38:38.692Z,11.17
2018-08-24T09:41:07.271Z,11.83
2018-08-24T09:43:41.176Z,12.58
2018-08-24T09:46:09.762Z,11.53
2018-08-24T09:48:43.669Z,11.60
2018-08-24T09:51:17.574Z,10.27
2018-08-24T09:53:51.264Z,12.15
2018-08-24T09:56:20.060Z,10.33
2018-08-24T09:58:48.752Z,11.33
2018-08-24T10:01:23.071Z,10.27
2018-08-24T10:03:56.977Z,10.70
2018-08-24T10:06:30.961Z,10.63
2018-08-24T10:08:59.471Z,12.67
2018-08-24T10:11:28.051Z,10.50
2018-08-24T10:13:56.635Z,10.60
2018-08-24T10:16:25.219Z,10.27
2018-08-24T10:18:53.799Z,10.77
2018-08-24T10:21:22.690Z,10.23
2018-08-24T10:23:51.165Z,10.67
2018-08-24T10:26:19.652Z,10.80
2018-08-24T10:28:48.238Z,11.37
2018-08-24T10:31:16.826Z,10.73
2018-08-24T10:33:45.350Z,11.20
2018-08-24T10:36:13.899Z,10.90
2018-08-24T10:38:42.462Z,10.60
2018-08-24T10:41:11.413Z,10.73
2018-08-24T10:43:39.937Z,10.90
2018-08-24T10:46:08.322Z,11.37
2018-08-24T10:48:37.003Z,11.33
2018-08-24T10:51:05.788Z,11.00
2018-08-24T10:53:40.825Z,10.30
2018-08-24T10:56:09.388Z,10.73
2018-08-24T10:58:38.092Z,11.43
2018-08-24T11:01:06.623Z,10.20
2018-08-24T11:03:34.842Z,10.07
2018-08-24T11:06:03.533Z,10.03
2018-08-24T11:08:32.320Z,9.03
2018-08-24T11:11:00.804Z,9.37
2018-08-24T11:13:29.245Z,9.30
2018-08-24T11:15:57.608Z,9.93
2018-08-24T11:18:26.144Z,9.27
2018-08-24T11:20:54.619Z,8.83
2018-08-24T11:23:23.128Z,9.63
2018-08-24T11:25:51.489Z,9.23
2018-08-24T11:28:19.861Z,10.55
2018-08-24T11:30:48.443Z,10.38
2018-08-24T11:33:17.025Z,10.50
2018-08-24T11:35:45.511Z,12.30
2018-08-24T11:38:13.912Z,8.33
2018-08-24T11:40:42.364Z,9.35
2018-08-24T11:43:10.949Z,9.48
2018-08-24T11:45:39.636Z,8.85
2018-08-24T11:48:08.026Z,9.85
2018-08-24T11:50:36.698Z,9.20
2018-08-24T11:53:05.280Z,8.45
2018-08-24T11:55:33.789Z,8.68
2018-08-24T11:58:02.369Z,9.08
2018-08-24T12:00:32.054Z,9.25
2018-08-24T12:03:01.298Z,9.00
2018-08-24T12:05:30.141Z,10.03
2018-08-24T12:07:58.816Z,8.35
2018-08-24T12:10:27.311Z,10.05
2018-08-24T12:12:56.104Z,9.13
2018-08-24T12:15:24.574Z,9.08
2018-08-24T12:17:53.776Z,8.48
2018-08-24T12:20:22.151Z,8.90
2018-08-24T12:22:51.041Z,7.83
2018-08-24T12:25:19.435Z,9.13
2018-08-24T12:27:47.917Z,8.78
2018-08-24T12:30:16.483Z,8.50
2018-08-24T12:32:45.066Z,9.13
2018-08-24T12:35:13.651Z,8.80
2018-08-24T12:37:46.121Z,8.65
2018-08-24T12:40:15.424Z,8.68
2018-08-24T12:42:43.911Z,8.90
2018-08-24T12:45:12.487Z,8.48
2018-08-24T12:47:40.969Z,8.28
2018-08-24T12:50:10.063Z,9.10
2018-08-24T12:52:38.473Z,8.48
2018-08-24T12:55:07.029Z,8.50
2018-08-24T12:57:35.616Z,8.83
2018-08-24T13:00:04.232Z,9.03
2018-08-24T13:02:32.618Z,9.10
2018-08-24T13:05:01.354Z,10.87
2018-08-24T13:07:29.698Z,9.73
2018-08-24T13:09:58.109Z,9.63
2018-08-24T13:12:26.700Z,10.83
2018-08-24T13:14:55.128Z,10.83
2018-08-24T13:17:23.657Z,10.57
2018-08-24T13:19:52.446Z,11.90
2018-08-24T13:22:21.033Z,11.90
2018-08-24T13:24:49.611Z,12.00
2018-08-24T13:27:17.801Z,11.67
2018-08-24T13:29:45.901Z,12.90
2018-08-24T13:32:14.336Z,11.87
2018-08-24T13:34:42.789Z,12.47
2018-08-24T13:37:10.878Z,12.20
2018-08-24T13:39:39.180Z,12.77
2018-08-24T13:42:07.465Z,13.00
2018-08-24T13:44:35.555Z,13.53
2018-08-24T13:47:10.557Z,13.03
2018-08-24T13:49:38.719Z,13.77
2018-08-24T13:52:06.888Z,13.50
2018-08-24T13:54:35.065Z,12.40
2018-08-24T13:57:03.235Z,12.60
2018-08-24T13:59:31.409Z,13.87
2018-08-24T14:01:59.772Z,12.60
2018-08-24T14:04:27.920Z,13.07
2018-08-24T14:06:56.031Z,13.60
2018-08-24T14:09:24.161Z,14.67
2018-08-24T14:11:52.390Z,13.07
2018-08-24T14:14:20.506Z,12.87
2018-08-24T14:16:48.662Z,12.47
2018-08-24T14:19:16.782Z,12.53
2018-08-24T14:21:44.971Z,14.20
2018-08-24T14:24:13.180Z,14.70
2018-08-24T14:26:41.541Z,14.23
2018-08-24T14:29:09.563Z,13.37
2018-08-24T14:31:37.824Z,13.13
2018-08-24T14:34:05.949Z,13.97
2018-08-24T14:36:34.190Z,10.77
2018-08-24T14:39:02.593Z,6.83
2018-08-24T14:41:31.076Z,6.30
2018-08-24T14:43:59.763Z,5.97
2018-08-24T14:46:28.295Z,5.17
2018-08-24T14:48:56.825Z,5.20
2018-08-24T14:51:25.406Z,5.17
2018-08-24T14:53:53.877Z,6.13
2018-08-24T14:56:22.471Z,5.70
2018-08-24T14:58:50.951Z,5.40
2018-08-24T15:01:19.151Z,5.80
2018-08-24T15:03:47.285Z,6.13
2018-08-24T15:06:15.430Z,7.00
2018-08-24T15:08:43.530Z,6.33
2018-08-24T15:11:11.698Z,6.63
2018-08-24T15:13:39.945Z,6.47
2018-08-24T15:16:08.098Z,6.53
2018-08-24T15:18:36.221Z,6.40
2018-08-24T15:21:04.318Z,6.83
2018-08-24T15:23:32.516Z,6.87
2018-08-24T15:26:01.064Z,6.33
2018-08-24T15:28:29.452Z,6.63
2018-08-24T15:30:57.633Z,7.20
2018-08-24T15:33:25.814Z,6.93
2018-08-24T15:35:53.921Z,7.27
2018-08-24T15:38:22.082Z,7.27
2018-08-24T15:40:50.330Z,7.73
2018-08-24T15:43:18.504Z,6.70
2018-08-24T15:45:46.701Z,8.57
2018-08-24T15:48:14.822Z,8.23
2018-08-24T15:50:43.204Z,8.13
2018-08-24T15:53:11.686Z,9.60
2018-08-24T15:55:40.168Z,8.60
2018-08-24T15:58:08.646Z,8.70
2018-08-24T16:00:37.234Z,8.97
2018-08-24T16:03:05.815Z,8.43
2018-08-24T16:05:34.292Z,8.57
2018-08-24T16:08:02.695Z,8.80
2018-08-24T16:10:31.152Z,8.53
2018-08-24T16:12:59.465Z,9.00
2018-08-24T16:15:27.904Z,8.43
2018-08-24T16:18:01.686Z,8.97
2018-08-24T16:20:30.095Z,8.70
2018-08-24T16:22:58.210Z,10.03
2018-08-24T16:25:26.828Z,9.03
2018-08-24T16:27:55.144Z,9.03
2018-08-24T16:30:23.328Z,8.43
2018-08-24T16:32:52.395Z,7.63
2018-08-24T16:35:20.677Z,8.50
2018-08-24T16:37:49.254Z,8.20
2018-08-24T16:40:17.739Z,11.00
2018-08-24T16:42:45.836Z,9.27
2018-08-24T16:45:14.186Z,8.07
2018-08-24T16:47:42.627Z,8.77
2018-08-24T16:50:11.348Z,8.33
2018-08-24T16:52:39.460Z,8.20
2018-08-24T16:55:07.653Z,8.40
2018-08-24T16:57:35.764Z,7.90
2018-08-24T17:00:04.023Z,8.27
2018-08-24T17:02:32.419Z,7.30
2018-08-24T17:05:00.894Z,7.73
2018-08-24T17:07:29.414Z,8.10
2018-08-24T17:09:57.861Z,7.73
2018-08-24T17:12:27.174Z,8.03
2018-08-24T17:14:55.536Z,8.30
2018-08-24T17:17:23.616Z,7.33
2018-08-24T17:19:52.196Z,7.90
2018-08-24T17:22:20.776Z,8.23
2018-08-24T17:24:49.244Z,7.73
2018-08-24T17:27:17.686Z,8.53
2018-08-24T17:29:46.216Z,9.57
2018-08-24T17:32:14.799Z,9.33
2018-08-24T17:34:43.293Z,9.13
2018-08-24T17:37:12.278Z,10.20
2018-08-24T17:39:40.862Z,10.37
2018-08-24T17:42:09.439Z,10.13
2018-08-24T17:44:38.027Z,9.57
2018-08-24T17:47:06.406Z,10.10
2018-08-24T17:49:34.883Z,10.03
2018-08-24T17:52:03.463Z,9.33
2018-08-24T17:54:31.849Z,9.80
2018-08-24T17:57:00.530Z,9.60
2018-08-24T17:59:29.013Z,9.77
2018-08-24T18:01:57.593Z,11.23
2018-08-24T18:04:26.173Z,18.50
2018-08-24T18:06:54.669Z,17.77
2018-08-24T18:09:22.997Z,13.63
2018-08-24T18:11:51.415Z,16.37
2018-08-24T18:14:20.097Z,11.50
2018-08-24T18:16:48.576Z,10.80
2018-08-24T18:19:17.360Z,10.07
2018-08-24T18:21:46.155Z,9.47
2018-08-24T18:24:14.529Z,9.87
2018-08-24T18:26:42.923Z,9.03
2018-08-24T18:29:11.495Z,9.70
2018-08-24T18:31:39.963Z,10.67
2018-08-24T18:34:08.351Z,10.98
2018-08-24T18:36:36.988Z,9.50
2018-08-24T18:39:07.263Z,8.97
2018-08-24T18:41:35.733Z,9.37
2018-08-24T18:44:04.118Z,9.27
2018-08-24T18:46:32.698Z,9.93
2018-08-24T18:49:01.283Z,10.50
2018-08-24T18:51:29.770Z,9.90
2018-08-24T18:53:58.348Z,9.80
2018-08-24T18:56:26.497Z,9.73
2018-08-24T18:58:55.204Z,10.87
2018-08-24T19:01:23.787Z,9.40
2018-08-24T19:03:52.269Z,9.30
2018-08-24T19:06:20.875Z,9.50
2018-08-24T19:08:49.436Z,10.48
2018-08-24T19:11:23.241Z,10.50
2018-08-24T19:13:51.778Z,10.53
2018-08-24T19:16:20.303Z,11.40
2018-08-24T19:18:53.957Z,12.93
2018-08-24T19:21:27.811Z,12.63
2018-08-24T19:23:56.400Z,9.97
2018-08-24T19:26:25.184Z,8.63
2018-08-24T19:28:58.933Z,10.53
2018-08-24T19:31:27.372Z,9.03
2018-08-24T19:33:55.846Z,8.57
2018-08-24T19:36:24.429Z,7.30
2018-08-24T19:38:53.017Z,7.37
2018-08-24T19:41:26.819Z,8.37
2018-08-24T19:43:55.331Z,8.10
2018-08-24T19:46:23.689Z,8.47
2018-08-24T19:48:57.585Z,8.83
2018-08-24T19:51:26.155Z,8.00
2018-08-24T19:53:54.648Z,8.20
2018-08-24T19:56:29.748Z,8.20
2018-08-24T19:59:04.697Z,8.17
2018-08-24T20:01:34.230Z,8.33
2018-08-24T20:04:03.217Z,8.53
2018-08-24T20:06:37.085Z,7.97
2018-08-24T20:09:14.973Z,8.30
2018-08-24T20:11:44.343Z,8.00
2018-08-24T20:14:12.909Z,7.37
2018-08-24T20:16:46.710Z,7.20
2018-08-24T20:19:15.241Z,8.70
2018-08-24T20:21:43.881Z,10.83
2018-08-24T20:24:12.536Z,9.70
2018-08-24T20:26:40.940Z,8.63
2018-08-24T20:29:09.624Z,8.90
2018-08-24T20:31:38.418Z,10.40
2018-08-24T20:34:06.893Z,9.30
2018-08-24T20:36:35.277Z,9.20
2018-08-24T20:39:04.063Z,8.43
2018-08-24T20:41:32.847Z,8.63
2018-08-24T20:44:01.328Z,9.07
2018-08-24T20:46:29.717Z,8.23
2018-08-24T20:48:58.187Z,9.03
2018-08-24T20:51:26.770Z,8.93
2018-08-24T20:53:55.348Z,8.53
2018-08-24T20:56:23.943Z,9.67
2018-08-24T20:58:52.622Z,9.07
2018-08-24T21:01:21.308Z,9.90
2018-08-24T21:03:49.888Z,9.10
2018-08-24T21:06:18.577Z,10.33
2018-08-24T21:08:47.056Z,9.10
2018-08-24T21:11:15.535Z,9.47
2018-08-24T21:13:43.922Z,9.47
2018-08-24T21:16:12.604Z,9.43
2018-08-24T21:18:41.084Z,10.00
2018-08-24T21:21:09.459Z,9.60
2018-08-24T21:23:38.115Z,9.10
2018-08-24T21:26:06.626Z,8.90
2018-08-24T21:28:35.105Z,11.43
2018-08-24T21:31:03.693Z,12.27
2018-08-24T21:33:32.137Z,10.47
2018-08-24T21:36:00.649Z,10.00
2018-08-24T21:38:29.236Z,10.67
2018-08-24T21:40:57.820Z,10.63
2018-08-24T21:43:26.402Z,10.60
2018-08-24T21:45:54.885Z,10.10
2018-08-24T21:48:23.257Z,10.07
2018-08-24T21:50:51.593Z,9.10
2018-08-24T21:53:20.116Z,9.83
2018-08-24T21:55:48.700Z,9.67
2018-08-24T21:58:17.282Z,9.50
2018-08-24T22:00:45.769Z,10.27
2018-08-24T22:03:14.345Z,9.27
2018-08-24T22:05:43.031Z,9.13
2018-08-24T22:08:11.614Z,10.53
2018-08-24T22:10:40.117Z,8.97
2018-08-24T22:13:08.681Z,9.83
2018-08-24T22:15:37.059Z,10.10
2018-08-24T22:18:05.641Z,9.07
2018-08-24T22:20:34.222Z,9.97
2018-08-24T22:23:02.599Z,10.40
2018-08-24T22:25:31.080Z,10.00
2018-08-24T22:27:59.765Z,10.40
2018-08-24T22:30:28.447Z,10.23
2018-08-24T22:32:56.930Z,11.00
2018-08-24T22:35:25.514Z,9.73
2018-08-24T22:37:54.199Z,9.83
2018-08-24T22:40:22.681Z,10.50
2018-08-24T22:42:51.263Z,10.67
2018-08-24T22:45:19.841Z,11.53
2018-08-24T22:47:48.326Z,10.70
2018-08-24T22:50:16.814Z,10.00
2018-08-24T22:52:45.279Z,9.90
2018-08-24T22:55:13.871Z,9.90
2018-08-24T22:57:42.457Z,9.40
2018-08-24T23:00:10.870Z,9.30
2018-08-24T23:02:39.313Z,9.40
2018-08-24T23:05:08.008Z,9.43
2018-08-24T23:07:36.581Z,9.17
2018-08-24T23:10:05.167Z,9.53
2018-08-24T23:12:33.542Z,10.03
2018-08-24T23:15:02.235Z,9.27
2018-08-24T23:17:30.811Z,9.57
2018-08-24T23:19:59.196Z,9.37
2018-08-24T23:22:27.773Z,9.30
2018-08-24T23:24:56.355Z,9.63
2018-08-24T23:27:24.732Z,10.03
2018-08-24T23:29:53.319Z,9.77
2018-08-24T23:32:21.798Z,10.07
2018-08-24T23:34:50.269Z,10.20
2018-08-24T23:37:18.863Z,10.07
2018-08-24T23:39:47.545Z,9.43
2018-08-24T23:42:16.151Z,10.13
2018-08-24T23:44:44.711Z,9.23
2018-08-24T23:47:13.207Z,8.63
2018-08-24T23:49:41.671Z,10.23
2018-08-24T23:52:10.250Z,9.53
2018-08-24T23:54:38.739Z,8.90
2018-08-24T23:57:07.216Z,8.90
2018-08-24T23:59:35.591Z,9.53
